Time;durP1;ratioP1;P1;durP2;ratioP2;P2;SDS_P1;SDS_P2;PMS_P1;PMS_P2;Temp;Humidity;BMP_temperature;BMP_pressure;BME280_temperature;BME280_humidity;BME280_pressure;Samples;Min_cycle;Max_cycle;Signal;HPM_P1;HPM_P2
2023/12/24 00:02:02;;;;;;;12.10;5.37;;;1.30;99.90;;;;;;5033023;28;20293;-81
2023/12/24 00:04:50;;;;;;;9.97;4.67;;;1.30;99.90;;;;;;5034407;28;20198;-81
2023/12/24 00:07:38;;;;;;;10.13;4.77;;;1.30;99.90;;;;;;5033650;28;20592;-81
2023/12/24 00:10:26;;;;;;;11.30;4.87;;;1.30;99.90;;;;;;5034986;28;20622;-81
2023/12/24 00:13:14;;;;;;;6.77;4.63;;;1.30;99.90;;;;;;5034526;28;20278;-81
2023/12/24 00:16:02;;;;;;;11.73;5.00;;;1.30;99.90;;;;;;5021003;28;20655;-81
2023/12/24 00:18:49;;;;;;;11.17;4.87;;;1.20;99.90;;;;;;5034167;28;20558;-81
2023/12/24 00:21:37;;;;;;;15.27;4.97;;;1.30;99.90;;;;;;5035317;28;20797;-80
2023/12/24 00:24:24;;;;;;;13.53;5.40;;;1.20;99.90;;;;;;5035000;28;20660;-81
2023/12/24 00:27:12;;;;;;;10.67;5.03;;;1.20;99.90;;;;;;5020268;28;20263;-80
2023/12/24 00:29:59;;;;;;;8.73;4.63;;;1.10;99.90;;;;;;5036325;28;20227;-81
2023/12/24 00:32:47;;;;;;;12.17;4.50;;;1.20;99.90;;;;;;5035754;28;20200;-81
2023/12/24 00:35:35;;;;;;;12.57;4.17;;;1.20;99.90;;;;;;5035699;28;20199;-81
2023/12/24 00:38:23;;;;;;;13.90;4.77;;;1.20;99.90;;;;;;5035060;28;20239;-81
2023/12/24 00:41:10;;;;;;;9.33;4.27;;;1.20;99.90;;;;;;5033576;28;20213;-81
2023/12/24 00:43:58;;;;;;;9.17;3.90;;;1.10;99.90;;;;;;5033695;28;20196;-81
2023/12/24 00:46:45;;;;;;;8.10;4.47;;;1.10;99.90;;;;;;5033564;28;20210;-81
2023/12/24 00:49:33;;;;;;;10.73;4.23;;;1.00;99.90;;;;;;5033740;28;20194;-81
2023/12/24 00:52:20;;;;;;;8.33;3.60;;;1.00;99.90;;;;;;5033964;28;20195;-81
2023/12/24 00:55:08;;;;;;;9.73;3.93;;;1.00;99.90;;;;;;5034172;28;20621;-82
2023/12/24 00:57:55;;;;;;;9.40;3.70;;;0.90;99.90;;;;;;5033127;28;20313;-81
2023/12/24 01:00:46;;;;;;;9.53;3.63;;;0.90;99.90;;;;;;5034697;28;20239;-80
2023/12/24 01:03:33;;;;;;;11.77;3.93;;;0.80;99.90;;;;;;5033487;28;20571;-81
2023/12/24 01:06:21;;;;;;;8.87;3.67;;;0.80;99.90;;;;;;5033365;28;20231;-81
2023/12/24 01:09:09;;;;;;;8.43;4.00;;;0.80;99.90;;;;;;5033437;28;20242;-80
2023/12/24 01:11:56;;;;;;;7.00;3.20;;;0.70;99.90;;;;;;5034284;28;20220;-81
2023/12/24 01:14:44;;;;;;;9.50;3.50;;;0.70;99.90;;;;;;5033483;28;20276;-81
2023/12/24 01:17:31;;;;;;;8.27;3.23;;;0.80;99.90;;;;;;5032751;28;20358;-81
2023/12/24 01:20:19;;;;;;;9.53;3.57;;;0.80;99.90;;;;;;5033202;28;20202;-81
2023/12/24 01:23:07;;;;;;;6.00;3.10;;;0.80;99.90;;;;;;5032000;28;20246;-81
2023/12/24 01:25:54;;;;;;;7.60;3.27;;;0.70;99.90;;;;;;5032989;28;20214;-81
2023/12/24 01:28:43;;;;;;;6.50;3.20;;;0.70;99.90;;;;;;5032692;28;20214;-81
2023/12/24 01:31:30;;;;;;;5.73;2.93;;;0.60;99.90;;;;;;5032596;28;20206;-81
2023/12/24 01:34:18;;;;;;;7.80;3.00;;;0.60;99.90;;;;;;5033002;28;20239;-81
2023/12/24 01:37:05;;;;;;;6.73;2.87;;;0.50;99.90;;;;;;5032743;28;20281;-81
2023/12/24 01:39:53;;;;;;;7.10;2.90;;;0.60;99.90;;;;;;5031869;28;20246;-81
2023/12/24 01:42:43;;;;;;;5.97;3.10;;;0.60;99.90;;;;;;5032720;28;20242;-81
2023/12/24 01:45:31;;;;;;;7.80;3.20;;;0.50;99.90;;;;;;5032864;28;20205;-81
2023/12/24 01:48:19;;;;;;;6.20;2.97;;;0.60;99.90;;;;;;5031679;28;20258;-81
2023/12/24 01:51:08;;;;;;;5.70;3.00;;;0.50;99.90;;;;;;5033124;28;20274;-81
2023/12/24 01:53:56;;;;;;;8.10;3.07;;;0.40;99.90;;;;;;5031592;28;20247;-82
2023/12/24 01:56:48;;;;;;;9.10;2.90;;;0.30;99.90;;;;;;5033451;28;20227;-81
2023/12/24 01:59:36;;;;;;;5.90;2.63;;;0.30;99.90;;;;;;5032534;28;20205;-81
2023/12/24 02:02:27;;;;;;;6.23;3.10;;;0.40;99.90;;;;;;5031994;28;20196;-81
2023/12/24 02:05:15;;;;;;;8.70;2.93;;;0.30;99.90;;;;;;5033694;28;20239;-81
2023/12/24 02:08:03;;;;;;;5.57;2.53;;;0.30;99.90;;;;;;5033001;28;20219;-81
2023/12/24 02:10:51;;;;;;;6.43;2.90;;;0.20;99.90;;;;;;5032388;28;20231;-81
2023/12/24 02:13:39;;;;;;;5.03;2.80;;;0.20;99.90;;;;;;5031072;28;20190;-81
2023/12/24 02:16:31;;;;;;;8.17;3.27;;;0.20;99.90;;;;;;5032950;28;20205;-81
2023/12/24 02:19:19;;;;;;;5.50;2.87;;;0.10;99.90;;;;;;5032798;28;20228;-81
2023/12/24 02:22:06;;;;;;;6.17;2.70;;;0.00;99.90;;;;;;5032266;28;20195;-81
2023/12/24 02:24:55;;;;;;;6.97;2.80;;;0.10;99.90;;;;;;5030652;28;20333;-81
2023/12/24 02:27:42;;;;;;;6.77;3.33;;;0.10;99.90;;;;;;5031582;28;20701;-82
2023/12/24 02:30:35;;;;;;;7.33;2.90;;;0.00;99.90;;;;;;5032211;28;20211;-81
2023/12/24 02:33:24;;;;;;;6.17;2.73;;;-0.10;99.90;;;;;;5032404;28;20188;-81
2023/12/24 02:36:12;;;;;;;9.43;3.03;;;-0.10;99.90;;;;;;5032225;28;20211;-81
2023/12/24 02:39:00;;;;;;;7.90;3.20;;;0.00;99.90;;;;;;5031557;28;20808;-81
2023/12/24 02:41:47;;;;;;;7.07;3.03;;;-0.10;99.90;;;;;;5035378;28;20220;-82
2023/12/24 02:44:35;;;;;;;6.37;3.30;;;0.00;99.90;;;;;;5036123;28;20204;-81
2023/12/24 02:47:23;;;;;;;5.53;2.90;;;0.00;99.90;;;;;;5036560;28;20546;-81
2023/12/24 02:50:10;;;;;;;8.73;3.70;;;0.00;99.90;;;;;;5036007;28;20199;-81
2023/12/24 02:52:58;;;;;;;7.53;3.20;;;-0.10;99.90;;;;;;5035964;28;20194;-81
2023/12/24 02:55:46;;;;;;;10.27;3.40;;;-0.10;99.90;;;;;;5035239;28;20224;-81
2023/12/24 02:58:33;;;;;;;7.93;3.30;;;-0.10;99.90;;;;;;5035096;28;20218;-81
2023/12/24 03:01:21;;;;;;;10.20;3.40;;;-0.20;99.90;;;;;;5035137;28;20612;-81
2023/12/24 03:04:08;;;;;;;7.30;3.60;;;-0.20;99.90;;;;;;5035326;28;20255;-81
2023/12/24 03:06:56;;;;;;;8.37;3.13;;;-0.20;99.90;;;;;;5036118;28;20242;-81
2023/12/24 03:09:43;;;;;;;9.07;3.27;;;-0.20;99.90;;;;;;5036111;28;20250;-81
2023/12/24 03:12:31;;;;;;;9.83;3.30;;;-0.30;99.90;;;;;;5036096;28;20269;-81
2023/12/24 03:15:18;;;;;;;9.17;3.07;;;-0.20;99.90;;;;;;5034438;28;20196;-81
2023/12/24 03:18:05;;;;;;;6.37;3.13;;;-0.30;99.90;;;;;;5034848;28;20217;-81
2023/12/24 03:20:53;;;;;;;6.87;3.10;;;-0.30;99.90;;;;;;5035116;28;20199;-81
2023/12/24 03:23:40;;;;;;;8.33;3.20;;;-0.20;99.90;;;;;;5035600;28;20199;-81
2023/12/24 03:26:29;;;;;;;10.90;3.40;;;-0.20;99.90;;;;;;5035756;28;20220;-81
2023/12/24 03:29:16;;;;;;;7.80;4.03;;;-0.20;99.90;;;;;;5034892;28;20629;-81
2023/12/24 03:32:04;;;;;;;8.73;4.30;;;-0.20;99.90;;;;;;5036263;28;20671;-81
2023/12/24 03:34:52;;;;;;;10.40;4.23;;;-0.30;99.90;;;;;;5034588;28;20229;-81
2023/12/24 03:37:39;;;;;;;8.33;4.33;;;-0.30;99.90;;;;;;5033977;28;20650;-81
2023/12/24 03:40:26;;;;;;;8.30;3.83;;;-0.30;99.90;;;;;;5034909;28;20206;-81
2023/12/24 03:43:14;;;;;;;7.87;3.90;;;-0.30;99.90;;;;;;5034834;28;20684;-81
2023/12/24 03:46:01;;;;;;;6.97;4.03;;;-0.30;99.90;;;;;;5035424;28;20191;-81
2023/12/24 03:48:49;;;;;;;9.97;4.40;;;-0.40;99.90;;;;;;5034959;28;20194;-80
2023/12/24 03:51:36;;;;;;;10.50;4.60;;;-0.40;99.90;;;;;;5034148;28;20283;-81
2023/12/24 03:54:24;;;;;;;8.97;4.70;;;-0.40;99.90;;;;;;5034213;28;20201;-81
2023/12/24 03:57:12;;;;;;;8.23;5.07;;;-0.40;99.90;;;;;;5033912;28;20226;-81
2023/12/24 03:59:59;;;;;;;15.37;5.63;;;-0.40;99.90;;;;;;5034196;28;20291;-81
2023/12/24 04:02:46;;;;;;;9.57;5.13;;;-0.40;99.90;;;;;;5034791;28;20198;-81
2023/12/24 04:05:34;;;;;;;12.23;5.70;;;-0.40;99.90;;;;;;5034471;28;20231;-81
2023/12/24 04:08:22;;;;;;;10.40;5.23;;;-0.40;99.90;;;;;;5035044;28;20284;-80
2023/12/24 04:11:13;;;;;;;12.57;5.47;;;-0.40;99.90;;;;;;5034049;28;20215;-81
2023/12/24 04:14:01;;;;;;;10.00;4.77;;;-0.40;99.90;;;;;;5034554;28;20546;-80
2023/12/24 04:16:48;;;;;;;9.83;4.83;;;-0.40;99.90;;;;;;5034265;28;20204;-81
2023/12/24 04:19:36;;;;;;;10.47;4.43;;;-0.40;99.90;;;;;;5033832;28;20200;-80
2023/12/24 04:22:23;;;;;;;11.37;3.97;;;-0.30;99.90;;;;;;5034822;28;20801;-81
2023/12/24 04:25:11;;;;;;;6.77;3.67;;;-0.40;99.90;;;;;;5034261;28;20207;-81
2023/12/24 04:27:58;;;;;;;9.10;3.70;;;-0.40;99.90;;;;;;5033147;28;20204;-81
2023/12/24 04:30:46;;;;;;;8.97;4.23;;;-0.40;99.90;;;;;;5034181;28;20295;-80
2023/12/24 04:33:34;;;;;;;7.83;3.37;;;-0.40;99.90;;;;;;5035213;28;20198;-81
2023/12/24 04:36:23;;;;;;;7.87;3.43;;;-0.40;99.90;;;;;;5033636;28;20204;-82
2023/12/24 04:39:11;;;;;;;10.13;3.57;;;-0.40;99.90;;;;;;5033897;28;20199;-81
2023/12/24 04:41:58;;;;;;;7.23;3.70;;;-0.30;99.90;;;;;;5033831;28;20701;-81
2023/12/24 04:44:46;;;;;;;9.57;3.80;;;-0.40;99.90;;;;;;5034998;28;20332;-81
2023/12/24 04:47:33;;;;;;;8.77;3.97;;;-0.40;99.90;;;;;;5032771;28;20194;-82
2023/12/24 04:50:21;;;;;;;11.40;4.00;;;-0.40;99.90;;;;;;5032663;28;20565;-81
2023/12/24 04:53:08;;;;;;;10.57;4.13;;;-0.40;99.90;;;;;;5032948;28;20204;-81
2023/12/24 04:55:56;;;;;;;7.33;4.13;;;-0.40;99.90;;;;;;5033133;28;20818;-80
2023/12/24 04:58:43;;;;;;;8.80;4.90;;;-0.50;99.90;;;;;;5032436;28;20218;-81
2023/12/24 05:01:31;;;;;;;11.23;5.00;;;-0.50;99.90;;;;;;5033502;28;20199;-83
2023/12/24 05:04:18;;;;;;;12.37;5.00;;;-0.40;99.90;;;;;;5033470;28;20238;-81
2023/12/24 05:07:06;;;;;;;10.30;4.67;;;-0.40;99.90;;;;;;5033333;28;20756;-81
2023/12/24 05:09:54;;;;;;;8.37;4.47;;;-0.40;99.90;;;;;;5033302;28;20196;-82
2023/12/24 05:12:41;;;;;;;8.87;4.23;;;-0.40;99.90;;;;;;5033178;28;20302;-81
2023/12/24 05:15:29;;;;;;;11.30;4.47;;;-0.40;99.90;;;;;;5033796;28;20187;-81
2023/12/24 05:18:16;;;;;;;9.50;4.30;;;-0.40;99.90;;;;;;5033033;28;20227;-81
2023/12/24 05:21:04;;;;;;;7.37;3.90;;;-0.50;99.90;;;;;;5033134;28;20695;-81
2023/12/24 05:23:51;;;;;;;9.50;4.33;;;-0.50;99.90;;;;;;5033679;28;20188;-81
2023/12/24 05:26:39;;;;;;;10.23;4.07;;;-0.50;99.90;;;;;;5032696;28;20264;-80
2023/12/24 05:29:26;;;;;;;12.17;3.90;;;-0.50;99.90;;;;;;5033557;28;20272;-82
2023/12/24 05:32:14;;;;;;;10.63;4.33;;;-0.50;99.90;;;;;;5031450;28;20659;-82
2023/12/24 05:35:01;;;;;;;10.67;4.13;;;-0.50;99.90;;;;;;5033133;28;20188;-84
2023/12/24 05:37:49;;;;;;;13.93;4.60;;;-0.50;99.90;;;;;;5032182;28;20345;-82
2023/12/24 05:40:36;;;;;;;8.47;4.20;;;-0.50;99.90;;;;;;5032004;28;20293;-82
2023/12/24 05:43:24;;;;;;;9.50;4.60;;;-0.50;99.90;;;;;;5032882;28;20192;-81
2023/12/24 05:46:15;;;;;;;11.43;4.90;;;-0.50;99.90;;;;;;5033735;28;20279;-83
2023/12/24 05:49:03;;;;;;;7.77;4.27;;;-0.40;99.90;;;;;;5031876;28;20198;-82
2023/12/24 05:51:51;;;;;;;10.40;4.70;;;-0.40;99.90;;;;;;5032665;28;20203;-82
2023/12/24 05:54:39;;;;;;;10.63;4.73;;;-0.40;99.90;;;;;;5032607;28;20712;-81
2023/12/24 05:57:27;;;;;;;11.10;4.53;;;-0.40;99.90;;;;;;5032347;28;20226;-81
2023/12/24 06:00:14;;;;;;;9.57;4.47;;;-0.40;99.90;;;;;;5032334;28;20274;-82
2023/12/24 06:03:03;;;;;;;11.10;4.80;;;-0.40;99.90;;;;;;5031798;28;20327;-83
2023/12/24 06:05:50;;;;;;;10.53;4.53;;;-0.50;99.90;;;;;;5031873;28;20239;-82
2023/12/24 06:08:38;;;;;;;9.60;4.10;;;-0.50;99.90;;;;;;5032462;28;20204;-82
2023/12/24 06:11:25;;;;;;;9.53;4.37;;;-0.40;99.90;;;;;;5032855;28;20302;-82
2023/12/24 06:14:13;;;;;;;8.00;3.87;;;-0.40;99.90;;;;;;5032485;28;20706;-82
2023/12/24 06:17:00;;;;;;;10.10;4.07;;;-0.40;99.90;;;;;;5032241;28;20193;-80
2023/12/24 06:19:48;;;;;;;7.63;3.90;;;-0.40;99.90;;;;;;5032755;28;20677;-81
2023/12/24 06:22:36;;;;;;;8.40;3.50;;;-0.40;99.90;;;;;;5032255;28;20199;-82
2023/12/24 06:25:23;;;;;;;8.57;3.37;;;-0.40;99.90;;;;;;5032248;28;20565;-81
2023/12/24 06:28:11;;;;;;;7.87;3.33;;;-0.40;99.90;;;;;;5033033;28;20191;-83
2023/12/24 06:31:00;;;;;;;7.50;3.53;;;-0.40;99.90;;;;;;5030596;28;20387;-83
2023/12/24 06:33:48;;;;;;;9.97;3.13;;;-0.30;99.90;;;;;;5031544;28;20203;-78
2023/12/24 06:36:36;;;;;;;7.13;3.60;;;-0.30;99.90;;;;;;5031658;28;20243;-84
2023/12/24 06:39:23;;;;;;;11.47;3.73;;;-0.20;99.90;;;;;;5033257;28;20691;-81
2023/12/24 06:42:11;;;;;;;9.60;3.70;;;-0.20;99.90;;;;;;5032152;28;20769;-81
2023/12/24 06:44:58;;;;;;;8.90;3.83;;;-0.10;99.90;;;;;;5031103;28;20203;-81
2023/12/24 06:47:45;;;;;;;9.37;3.53;;;-0.10;99.90;;;;;;5031561;28;20195;-81
2023/12/24 06:50:33;;;;;;;8.47;3.57;;;0.00;99.90;;;;;;5030960;28;20679;-81
2023/12/24 06:53:20;;;;;;;8.97;3.53;;;-0.10;99.90;;;;;;5032422;28;20196;-82
2023/12/24 06:56:08;;;;;;;10.17;3.80;;;0.00;99.90;;;;;;5032121;28;20303;-81
2023/12/24 06:58:56;;;;;;;8.37;4.13;;;0.00;99.90;;;;;;5032184;28;20317;-84
2023/12/24 07:01:43;;;;;;;9.23;4.30;;;0.10;99.90;;;;;;5031289;28;20287;-84
2023/12/24 07:04:31;;;;;;;11.30;4.30;;;0.10;99.90;;;;;;5031903;28;20193;-81
2023/12/24 07:07:20;;;;;;;8.70;4.10;;;0.10;99.90;;;;;;5031915;28;20200;-85
2023/12/24 07:10:08;;;;;;;9.97;4.17;;;0.10;99.90;;;;;;5031792;28;20210;-80
2023/12/24 07:12:56;;;;;;;8.33;4.23;;;0.10;99.90;;;;;;5031158;28;20193;-84
2023/12/24 07:15:44;;;;;;;10.67;4.80;;;0.20;99.90;;;;;;5031831;28;20201;-80
2023/12/24 07:18:31;;;;;;;11.40;4.97;;;0.20;99.90;;;;;;5031726;28;20248;-81
2023/12/24 07:21:19;;;;;;;10.00;4.83;;;0.20;99.90;;;;;;5031605;28;20202;-81
2023/12/24 07:24:07;;;;;;;12.23;5.23;;;0.20;99.90;;;;;;5031013;28;20195;-81
2023/12/24 07:26:55;;;;;;;11.93;5.33;;;0.20;99.90;;;;;;5034451;28;20224;-81
2023/12/24 07:29:42;;;;;;;12.90;5.03;;;0.20;99.90;;;;;;5035922;28;20556;-81
2023/12/24 07:32:30;;;;;;;9.73;5.13;;;0.20;99.90;;;;;;5035782;28;20652;-83
2023/12/24 07:35:18;;;;;;;13.83;5.00;;;0.30;99.90;;;;;;5035402;28;20610;-82
2023/12/24 07:38:06;;;;;;;12.27;5.37;;;0.40;99.90;;;;;;5021484;28;20303;-84
2023/12/24 07:40:54;;;;;;;12.27;5.47;;;0.40;99.90;;;;;;5034615;28;20225;-83
2023/12/24 07:43:41;;;;;;;10.27;5.53;;;0.40;99.90;;;;;;5036235;28;20195;-78
2023/12/24 07:46:28;;;;;;;15.17;5.17;;;0.40;99.90;;;;;;5035213;28;20205;-79
2023/12/24 07:49:16;;;;;;;15.33;5.57;;;0.50;99.90;;;;;;5034452;28;20630;-78
2023/12/24 07:52:03;;;;;;;11.37;5.37;;;0.50;99.90;;;;;;5034655;28;20202;-79
2023/12/24 07:54:51;;;;;;;14.13;6.13;;;0.50;99.90;;;;;;5034011;28;20222;-80
2023/12/24 07:57:39;;;;;;;13.67;6.03;;;0.60;99.90;;;;;;5035029;28;20230;-80
2023/12/24 08:00:27;;;;;;;10.93;5.77;;;0.60;99.90;;;;;;5034532;28;20280;-81
2023/12/24 08:03:14;;;;;;;13.40;5.80;;;0.60;99.90;;;;;;5033990;28;20281;-80
2023/12/24 08:06:02;;;;;;;13.47;5.80;;;0.70;99.90;;;;;;5033885;28;20599;-80
2023/12/24 08:08:49;;;;;;;14.23;5.63;;;0.80;99.90;;;;;;5034707;28;20190;-80
2023/12/24 08:11:37;;;;;;;15.27;6.20;;;0.80;99.90;;;;;;5033746;28;20255;-80
2023/12/24 08:14:24;;;;;;;9.80;5.73;;;0.80;99.90;;;;;;5034344;28;20196;-80
2023/12/24 08:17:12;;;;;;;10.70;5.73;;;0.80;99.90;;;;;;5034952;28;20659;-80
2023/12/24 08:20:00;;;;;;;13.20;6.47;;;0.90;99.90;;;;;;5034224;28;20344;-80
2023/12/24 08:22:48;;;;;;;11.33;5.83;;;0.90;99.90;;;;;;5033728;28;20547;-81
2023/12/24 08:25:36;;;;;;;14.53;6.33;;;0.90;99.90;;;;;;5034147;28;20620;-80
2023/12/24 08:28:24;;;;;;;13.50;5.43;;;1.00;99.90;;;;;;5034144;28;20202;-80
2023/12/24 08:31:11;;;;;;;14.27;5.77;;;1.00;99.90;;;;;;5033653;28;20285;-80
2023/12/24 08:33:59;;;;;;;15.00;6.17;;;1.00;99.90;;;;;;5033991;28;20226;-80
2023/12/24 08:36:46;;;;;;;19.47;6.63;;;1.10;99.90;;;;;;5034198;28;20282;-80
2023/12/24 08:39:34;;;;;;;14.80;5.87;;;1.10;99.90;;;;;;5031735;28;20229;-80
2023/12/24 08:42:21;;;;;;;14.37;6.07;;;1.20;99.90;;;;;;5032810;28;20219;-80
2023/12/24 08:45:09;;;;;;;12.93;5.73;;;1.20;99.90;;;;;;5034283;28;20198;-80
2023/12/24 08:47:57;;;;;;;14.00;6.20;;;1.20;99.90;;;;;;5033325;28;20215;-80
2023/12/24 08:50:45;;;;;;;18.23;6.43;;;1.30;99.90;;;;;;5034686;28;20200;-80
2023/12/24 08:53:32;;;;;;;13.63;6.53;;;1.30;99.90;;;;;;5032998;28;20576;-80
2023/12/24 08:56:20;;;;;;;15.50;6.47;;;1.40;99.90;;;;;;5033501;28;20242;-80
2023/12/24 08:59:08;;;;;;;18.50;7.00;;;1.30;99.90;;;;;;5032395;28;20229;-80
2023/12/24 09:01:56;;;;;;;17.27;6.70;;;1.40;99.90;;;;;;5032735;28;20553;-80
2023/12/24 09:04:46;;;;;;;13.80;6.40;;;1.40;99.90;;;;;;5032620;28;20688;-80
2023/12/24 09:07:34;;;;;;;16.03;6.53;;;1.50;99.90;;;;;;5033279;28;20205;-80
2023/12/24 09:10:22;;;;;;;17.27;6.63;;;1.60;99.90;;;;;;5032647;28;20273;-80
2023/12/24 09:13:09;;;;;;;20.90;6.73;;;1.50;99.90;;;;;;5033246;28;20842;-80
2023/12/24 09:15:57;;;;;;;14.97;6.47;;;1.50;99.90;;;;;;5034206;28;20333;-80
2023/12/24 09:18:44;;;;;;;17.07;7.03;;;1.60;99.90;;;;;;5031862;28;20220;-80
2023/12/24 09:21:32;;;;;;;12.80;6.67;;;1.50;99.90;;;;;;5031465;28;20206;-80
2023/12/24 09:24:20;;;;;;;15.87;6.90;;;1.60;99.90;;;;;;5033584;28;20198;-80
2023/12/24 09:27:07;;;;;;;15.07;6.40;;;1.80;99.90;;;;;;5031671;28;20680;-80
2023/12/24 09:29:55;;;;;;;16.10;6.90;;;1.80;99.90;;;;;;5032685;28;20199;-81
2023/12/24 09:32:43;;;;;;;18.40;6.83;;;1.90;99.90;;;;;;5033473;28;20633;-80
2023/12/24 09:35:31;;;;;;;11.93;6.57;;;1.90;99.90;;;;;;5033350;28;20672;-80
2023/12/24 09:38:18;;;;;;;15.73;6.30;;;2.00;99.90;;;;;;5032714;28;20197;-80
2023/12/24 09:41:06;;;;;;;11.90;5.80;;;1.90;99.90;;;;;;5031638;28;20218;-81
2023/12/24 09:43:54;;;;;;;15.57;6.67;;;1.90;99.90;;;;;;5032618;28;20270;-80
2023/12/24 09:46:41;;;;;;;13.47;6.43;;;2.10;99.90;;;;;;5032634;28;20281;-81
2023/12/24 09:49:28;;;;;;;17.53;6.40;;;2.10;99.90;;;;;;5031906;28;20188;-80
2023/12/24 09:52:16;;;;;;;14.47;6.23;;;2.10;99.90;;;;;;5033089;28;20209;-80
2023/12/24 09:55:04;;;;;;;16.03;6.47;;;2.20;99.90;;;;;;5032425;28;20666;-81
2023/12/24 09:57:52;;;;;;;13.10;6.80;;;2.20;99.90;;;;;;5033077;28;20200;-81
2023/12/24 10:00:40;;;;;;;13.47;6.67;;;2.20;99.90;;;;;;5031738;28;20275;-81
2023/12/24 10:03:28;;;;;;;14.93;6.73;;;2.20;99.90;;;;;;5033389;28;20252;-81
2023/12/24 10:06:16;;;;;;;15.23;6.30;;;2.20;99.90;;;;;;5032282;28;20245;-81
2023/12/24 10:09:05;;;;;;;14.50;6.07;;;2.30;99.90;;;;;;5031284;28;20557;-81
2023/12/24 10:12:05;;;;;;;17.03;7.00;;;2.30;99.90;;;;;;5036383;28;20308;-81
2023/12/24 10:14:58;;;;;;;13.70;6.83;;;2.20;99.90;;;;;;5032077;28;20243;-80
2023/12/24 10:17:46;;;;;;;15.73;7.27;;;2.30;99.90;;;;;;5031769;28;20285;-80
2023/12/24 10:20:33;;;;;;;13.93;7.17;;;2.30;99.90;;;;;;5031421;28;20228;-80
2023/12/24 10:23:21;;;;;;;14.97;6.97;;;2.30;99.90;;;;;;5032207;28;20202;-80
2023/12/24 10:26:11;;;;;;;15.60;7.50;;;2.30;99.90;;;;;;5032049;28;20227;-80
2023/12/24 10:28:58;;;;;;;17.33;6.40;;;2.40;99.90;;;;;;5032405;28;20199;-80
2023/12/24 10:32:01;;;;;;;14.80;7.20;;;2.40;99.90;;;;;;5031862;28;20195;-80
2023/12/24 10:34:58;;;;;;;17.90;7.73;;;2.40;99.90;;;;;;5032571;28;20202;-80
2023/12/24 10:37:46;;;;;;;14.33;6.60;;;2.40;99.90;;;;;;5031745;28;20687;-80
2023/12/24 10:40:33;;;;;;;14.90;7.20;;;2.50;99.90;;;;;;5032667;28;20316;-81
2023/12/24 10:43:21;;;;;;;14.50;7.57;;;2.50;99.90;;;;;;5032575;28;20229;-80
2023/12/24 10:46:08;;;;;;;15.80;7.60;;;2.50;99.90;;;;;;5032003;28;20734;-80
2023/12/24 10:48:56;;;;;;;18.07;8.10;;;2.60;99.90;;;;;;5031973;28;20189;-80
2023/12/24 10:51:43;;;;;;;19.33;8.80;;;2.60;99.90;;;;;;5031904;28;20195;-80
2023/12/24 10:54:32;;;;;;;14.80;8.13;;;2.50;99.90;;;;;;5031851;28;20193;-80
2023/12/24 10:57:45;;;;;;;16.47;8.23;;;2.60;99.90;;;;;;5031764;28;20214;-80
2023/12/24 11:00:33;;;;;;;17.50;9.13;;;2.50;99.90;;;;;;5032439;28;20227;-80
2023/12/24 11:03:44;;;;;;;16.57;9.27;;;2.40;99.90;;;;;;5034523;28;20193;-80
2023/12/24 11:06:37;;;;;;;15.90;9.17;;;2.50;99.90;;;;;;5035384;28;20282;-80
2023/12/24 11:09:25;;;;;;;16.90;9.07;;;2.40;99.90;;;;;;5035299;28;20191;-80
2023/12/24 11:12:36;;;;;;;17.17;9.57;;;2.40;99.90;;;;;;5034800;28;20247;-80
2023/12/24 11:15:45;;;;;;;19.17;9.00;;;2.40;99.90;;;;;;5035942;28;20582;-80
2023/12/24 11:18:47;;;;;;;18.60;8.60;;;2.50;99.90;;;;;;5035214;28;20188;-80
2023/12/24 11:22:06;;;;;;;15.70;8.40;;;2.70;99.90;;;;;;5036116;28;20633;-80
2023/12/24 11:25:16;;;;;;;15.33;8.80;;;2.60;99.90;;;;;;5035186;28;20558;-80
2023/12/24 11:28:05;;;;;;;18.10;8.83;;;2.60;99.90;;;;;;5021680;28;20204;-80
2023/12/24 11:30:58;;;;;;;15.90;8.23;;;2.60;99.90;;;;;;5035146;28;20206;-80
2023/12/24 11:33:46;;;;;;;14.83;8.23;;;2.50;99.90;;;;;;5034613;28;20203;-80
2023/12/24 11:36:34;;;;;;;14.37;8.07;;;2.50;99.90;;;;;;5034944;28;20396;-81
2023/12/24 11:39:22;;;;;;;16.00;8.40;;;2.50;99.90;;;;;;5034829;28;20564;-80
2023/12/24 11:42:09;;;;;;;17.23;8.47;;;2.60;99.90;;;;;;5034324;28;20264;-80
2023/12/24 11:44:57;;;;;;;13.90;7.70;;;2.50;99.90;;;;;;5032992;28;20204;-80
2023/12/24 11:47:44;;;;;;;16.10;8.00;;;2.60;99.90;;;;;;5033682;28;20903;-81
2023/12/24 11:50:33;;;;;;;14.10;7.53;;;2.60;99.90;;;;;;5034128;28;20203;-80
2023/12/24 11:53:21;;;;;;;15.80;8.43;;;2.50;99.90;;;;;;5034625;28;20545;-81
2023/12/24 11:56:18;;;;;;;15.53;8.30;;;2.60;99.90;;;;;;5034011;28;20211;-80
2023/12/24 11:59:06;;;;;;;15.53;8.00;;;2.60;99.90;;;;;;5034043;28;20227;-81
2023/12/24 12:02:02;;;;;;;15.07;8.30;;;2.50;99.90;;;;;;5035105;28;20662;-80
2023/12/24 12:04:50;;;;;;;17.77;8.40;;;2.50;99.90;;;;;;5035020;28;20193;-79
2023/12/24 12:07:37;;;;;;;14.97;8.30;;;2.30;99.90;;;;;;5033819;28;20689;-80
2023/12/24 12:10:25;;;;;;;14.03;7.57;;;2.40;99.90;;;;;;5034450;28;20204;-80
2023/12/24 12:13:13;;;;;;;14.70;7.63;;;2.30;99.90;;;;;;5033262;28;20662;-80
2023/12/24 12:16:01;;;;;;;15.33;7.60;;;2.30;99.90;;;;;;5032782;28;20275;-80
2023/12/24 12:18:49;;;;;;;14.70;8.50;;;2.30;99.90;;;;;;5033562;28;20210;-80
2023/12/24 12:21:37;;;;;;;14.60;7.97;;;2.30;99.90;;;;;;5032555;28;20190;-80
2023/12/24 12:24:26;;;;;;;13.57;7.30;;;2.30;99.90;;;;;;5034642;28;20787;-80
2023/12/24 12:27:13;;;;;;;13.87;7.27;;;2.30;99.90;;;;;;5032124;28;20217;-80
2023/12/24 12:30:02;;;;;;;15.83;7.50;;;2.30;99.90;;;;;;5033986;28;20199;-80
2023/12/24 12:32:49;;;;;;;14.73;7.87;;;2.20;99.90;;;;;;5033552;28;20193;-80
2023/12/24 12:35:38;;;;;;;13.47;7.33;;;2.30;99.90;;;;;;5034213;28;20209;-80
2023/12/24 12:38:26;;;;;;;13.07;6.60;;;2.30;99.90;;;;;;5033183;28;20189;-79
2023/12/24 12:41:13;;;;;;;14.17;6.37;;;2.30;99.90;;;;;;5033259;28;20588;-81
2023/12/24 12:44:01;;;;;;;12.40;6.03;;;2.30;99.90;;;;;;5033799;28;20575;-80
2023/12/24 12:46:49;;;;;;;9.20;5.67;;;2.20;99.90;;;;;;5034320;28;20194;-80
2023/12/24 12:49:37;;;;;;;11.50;5.50;;;2.10;99.90;;;;;;5032213;28;20212;-80
2023/12/24 12:52:25;;;;;;;11.93;5.33;;;2.30;99.90;;;;;;5033952;28;21059;-80
2023/12/24 12:55:14;;;;;;;9.33;5.17;;;2.30;99.90;;;;;;5033013;28;20196;-80
2023/12/24 12:58:11;;;;;;;9.47;4.80;;;2.20;99.90;;;;;;5033112;28;20238;-80
2023/12/24 13:01:02;;;;;;;8.07;4.90;;;2.20;99.90;;;;;;5033842;28;20270;-80
2023/12/24 13:03:59;;;;;;;9.97;4.97;;;2.20;99.90;;;;;;5019283;28;20285;-80
2023/12/24 13:06:59;;;;;;;9.83;4.70;;;2.20;99.90;;;;;;5033316;28;20240;-81
2023/12/24 13:09:49;;;;;;;8.63;4.83;;;2.10;99.90;;;;;;5032760;28;20206;-80
2023/12/24 13:12:39;;;;;;;8.70;4.83;;;2.00;99.90;;;;;;5032140;28;20610;-81
2023/12/24 13:15:26;;;;;;;10.37;5.20;;;2.00;99.90;;;;;;5033143;28;20196;-80
2023/12/24 13:18:15;;;;;;;10.83;5.17;;;1.90;99.90;;;;;;5033879;28;20724;-80
2023/12/24 13:21:07;;;;;;;9.07;5.13;;;1.90;99.90;;;;;;5032523;28;20247;-80
2023/12/24 13:23:54;;;;;;;10.00;5.60;;;1.90;99.90;;;;;;5031964;28;20213;-80
2023/12/24 13:26:42;;;;;;;10.60;5.43;;;1.90;99.90;;;;;;5032343;28;20256;-80
2023/12/24 13:29:30;;;;;;;13.23;5.50;;;2.00;99.90;;;;;;5032881;28;20204;-80
2023/12/24 13:32:18;;;;;;;8.37;4.60;;;2.10;99.90;;;;;;5033028;28;20603;-80
2023/12/24 13:35:05;;;;;;;9.10;5.10;;;1.90;99.90;;;;;;5032764;28;20200;-80
2023/12/24 13:37:53;;;;;;;9.27;4.90;;;2.00;99.90;;;;;;5032199;28;20301;-80
2023/12/24 13:40:41;;;;;;;8.97;4.80;;;1.90;99.90;;;;;;5032565;28;20693;-80
2023/12/24 13:43:29;;;;;;;7.53;4.60;;;1.90;99.90;;;;;;5032199;28;20224;-81
2023/12/24 13:46:19;;;;;;;6.73;4.20;;;1.80;99.90;;;;;;5033798;28;20199;-80
2023/12/24 13:49:09;;;;;;;8.40;4.47;;;1.90;99.90;;;;;;5033077;28;20189;-80
2023/12/24 13:51:57;;;;;;;8.00;4.53;;;1.90;99.90;;;;;;5032571;28;20578;-81
2023/12/24 13:54:45;;;;;;;7.60;4.70;;;1.80;99.90;;;;;;5032686;28;20231;-80
2023/12/24 13:57:34;;;;;;;9.03;5.13;;;1.80;99.90;;;;;;5031980;28;20230;-79
2023/12/24 14:00:22;;;;;;;8.20;4.90;;;1.90;99.90;;;;;;5031769;28;20219;-80
2023/12/24 14:03:10;;;;;;;10.83;5.33;;;1.80;99.90;;;;;;5032437;28;20199;-80
2023/12/24 14:05:58;;;;;;;8.40;4.60;;;1.90;99.90;;;;;;5031239;28;20600;-80
2023/12/24 14:08:46;;;;;;;9.83;4.83;;;1.90;99.90;;;;;;5032766;28;20224;-80
2023/12/24 14:11:34;;;;;;;8.83;4.97;;;2.00;99.90;;;;;;5032241;28;20227;-80
2023/12/24 14:14:22;;;;;;;8.23;4.60;;;2.00;99.90;;;;;;5032745;28;20252;-80
2023/12/24 14:17:10;;;;;;;8.70;5.13;;;1.90;99.90;;;;;;5032202;28;20204;-80
2023/12/24 14:19:57;;;;;;;9.33;4.53;;;1.80;99.90;;;;;;5031670;28;20211;-79
2023/12/24 14:22:45;;;;;;;8.67;5.07;;;1.70;99.90;;;;;;5032428;28;20204;-80
2023/12/24 14:25:33;;;;;;;11.50;5.00;;;1.60;99.90;;;;;;5030984;28;20660;-80
2023/12/24 14:28:21;;;;;;;10.07;5.23;;;1.70;99.90;;;;;;5031660;28;20194;-80
2023/12/24 14:31:08;;;;;;;9.07;5.40;;;1.60;99.90;;;;;;5031528;28;20197;-81
2023/12/24 14:33:56;;;;;;;8.77;5.30;;;1.70;99.90;;;;;;5031566;28;20196;-81
2023/12/24 14:36:43;;;;;;;11.33;5.70;;;1.80;99.90;;;;;;5034142;28;20194;-80
2023/12/24 14:39:31;;;;;;;9.37;5.20;;;1.80;99.90;;;;;;5035283;28;20211;-81